sensor_id;sensor_type;location;lat;lon;timestamp;P1;durP1;ratioP1;P2;durP2;ratioP2
18999;SDS011;9633;50.980;13.850;2023-02-22T00:00:04;8.60;;;6.63;;
18999;SDS011;9633;50.980;13.850;2023-02-22T00:01:49;9.37;;;6.20;;
18999;SDS011;9633;50.980;13.850;2023-02-22T00:03:40;10.00;;;6.47;;
18999;SDS011;9633;50.980;13.850;2023-02-22T00:05:15;8.53;;;6.70;;
18999;SDS011;9633;50.980;13.850;2023-02-22T00:06:50;9.43;;;6.07;;
18999;SDS011;9633;50.980;13.850;2023-02-22T00:08:24;8.83;;;6.33;;
18999;SDS011;9633;50.980;13.850;2023-02-22T00:10:00;9.27;;;6.77;;
18999;SDS011;9633;50.980;13.850;2023-02-22T00:11:33;9.30;;;6.13;;
18999;SDS011;9633;50.980;13.850;2023-02-22T00:13:09;9.10;;;6.30;;
18999;SDS011;9633;50.980;13.850;2023-02-22T00:14:43;8.43;;;6.13;;
18999;SDS011;9633;50.980;13.850;2023-02-22T00:16:17;7.93;;;5.73;;
18999;SDS011;9633;50.980;13.850;2023-02-22T00:17:53;7.70;;;5.83;;
18999;SDS011;9633;50.980;13.850;2023-02-22T00:19:27;8.93;;;6.17;;
18999;SDS011;9633;50.980;13.850;2023-02-22T00:21:02;8.20;;;6.10;;
18999;SDS011;9633;50.980;13.850;2023-02-22T00:22:41;8.60;;;6.00;;
18999;SDS011;9633;50.980;13.850;2023-02-22T00:24:16;9.20;;;5.90;;
18999;SDS011;9633;50.980;13.850;2023-02-22T00:25:54;8.80;;;6.10;;
18999;SDS011;9633;50.980;13.850;2023-02-22T00:27:29;10.20;;;6.53;;
18999;SDS011;9633;50.980;13.850;2023-02-22T00:29:02;7.90;;;5.97;;
18999;SDS011;9633;50.980;13.850;2023-02-22T00:30:35;7.57;;;5.63;;
18999;SDS011;9633;50.980;13.850;2023-02-22T00:32:08;9.13;;;5.83;;
18999;SDS011;9633;50.980;13.850;2023-02-22T00:33:41;7.63;;;5.83;;
18999;SDS011;9633;50.980;13.850;2023-02-22T00:35:15;9.07;;;5.73;;
18999;SDS011;9633;50.980;13.850;2023-02-22T00:36:51;7.60;;;5.70;;
18999;SDS011;9633;50.980;13.850;2023-02-22T00:38:24;8.13;;;5.70;;
18999;SDS011;9633;50.980;13.850;2023-02-22T00:39:56;8.13;;;6.27;;
18999;SDS011;9633;50.980;13.850;2023-02-22T00:41:29;9.47;;;6.20;;
18999;SDS011;9633;50.980;13.850;2023-02-22T00:43:03;10.03;;;6.53;;
18999;SDS011;9633;50.980;13.850;2023-02-22T00:44:37;7.57;;;5.77;;
18999;SDS011;9633;50.980;13.850;2023-02-22T00:46:12;8.60;;;5.80;;
18999;SDS011;9633;50.980;13.850;2023-02-22T00:47:45;8.77;;;6.23;;
18999;SDS011;9633;50.980;13.850;2023-02-22T00:49:18;7.67;;;5.93;;
18999;SDS011;9633;50.980;13.850;2023-02-22T00:50:53;8.03;;;5.90;;
18999;SDS011;9633;50.980;13.850;2023-02-22T00:52:28;8.95;;;5.60;;
18999;SDS011;9633;50.980;13.850;2023-02-22T00:54:00;7.67;;;6.33;;
18999;SDS011;9633;50.980;13.850;2023-02-22T00:55:35;9.73;;;6.40;;
18999;SDS011;9633;50.980;13.850;2023-02-22T00:57:09;9.80;;;6.53;;
18999;SDS011;9633;50.980;13.850;2023-02-22T00:58:42;8.53;;;6.07;;
18999;SDS011;9633;50.980;13.850;2023-02-22T01:00:16;9.13;;;6.40;;
18999;SDS011;9633;50.980;13.850;2023-02-22T01:01:51;7.47;;;6.03;;
18999;SDS011;9633;50.980;13.850;2023-02-22T01:03:25;8.80;;;6.30;;
18999;SDS011;9633;50.980;13.850;2023-02-22T01:05:00;8.50;;;6.10;;
18999;SDS011;9633;50.980;13.850;2023-02-22T01:06:32;10.50;;;6.47;;
18999;SDS011;9633;50.980;13.850;2023-02-22T01:08:07;10.03;;;6.83;;
18999;SDS011;9633;50.980;13.850;2023-02-22T01:09:41;10.60;;;6.57;;
18999;SDS011;9633;50.980;13.850;2023-02-22T01:11:15;10.77;;;6.03;;
18999;SDS011;9633;50.980;13.850;2023-02-22T01:12:49;11.20;;;6.73;;
18999;SDS011;9633;50.980;13.850;2023-02-22T01:14:22;9.13;;;6.27;;
18999;SDS011;9633;50.980;13.850;2023-02-22T01:15:58;8.90;;;6.00;;
18999;SDS011;9633;50.980;13.850;2023-02-22T01:17:31;12.17;;;6.90;;
18999;SDS011;9633;50.980;13.850;2023-02-22T01:19:04;10.57;;;6.17;;
18999;SDS011;9633;50.980;13.850;2023-02-22T01:20:37;9.03;;;6.87;;
18999;SDS011;9633;50.980;13.850;2023-02-22T01:22:11;8.97;;;6.73;;
18999;SDS011;9633;50.980;13.850;2023-02-22T01:23:45;8.80;;;6.67;;
18999;SDS011;9633;50.980;13.850;2023-02-22T01:25:19;10.00;;;6.30;;
18999;SDS011;9633;50.980;13.850;2023-02-22T01:26:53;10.20;;;7.13;;
18999;SDS011;9633;50.980;13.850;2023-02-22T01:28:26;11.83;;;7.00;;
18999;SDS011;9633;50.980;13.850;2023-02-22T01:30:00;10.40;;;7.07;;
18999;SDS011;9633;50.980;13.850;2023-02-22T01:31:38;12.97;;;7.60;;
18999;SDS011;9633;50.980;13.850;2023-02-22T01:33:15;11.53;;;7.30;;
18999;SDS011;9633;50.980;13.850;2023-02-22T01:34:48;12.20;;;7.40;;
18999;SDS011;9633;50.980;13.850;2023-02-22T01:36:23;10.83;;;7.50;;
18999;SDS011;9633;50.980;13.850;2023-02-22T01:37:56;12.67;;;8.00;;
18999;SDS011;9633;50.980;13.850;2023-02-22T01:39:31;11.40;;;7.67;;
18999;SDS011;9633;50.980;13.850;2023-02-22T01:41:04;11.20;;;7.77;;
18999;SDS011;9633;50.980;13.850;2023-02-22T01:42:40;13.57;;;8.30;;
18999;SDS011;9633;50.980;13.850;2023-02-22T01:44:20;11.30;;;7.97;;
18999;SDS011;9633;50.980;13.850;2023-02-22T01:45:58;13.30;;;7.93;;
18999;SDS011;9633;50.980;13.850;2023-02-22T01:47:33;10.53;;;7.23;;
18999;SDS011;9633;50.980;13.850;2023-02-22T01:49:05;10.67;;;7.70;;
18999;SDS011;9633;50.980;13.850;2023-02-22T01:50:41;10.70;;;8.00;;
18999;SDS011;9633;50.980;13.850;2023-02-22T01:52:18;13.97;;;8.87;;
18999;SDS011;9633;50.980;13.850;2023-02-22T01:53:53;12.90;;;8.60;;
18999;SDS011;9633;50.980;13.850;2023-02-22T01:55:31;11.77;;;8.57;;
18999;SDS011;9633;50.980;13.850;2023-02-22T01:57:05;11.77;;;8.00;;
18999;SDS011;9633;50.980;13.850;2023-02-22T01:58:45;11.67;;;7.90;;
18999;SDS011;9633;50.980;13.850;2023-02-22T02:00:21;10.00;;;8.20;;
18999;SDS011;9633;50.980;13.850;2023-02-22T02:01:57;11.00;;;8.10;;
18999;SDS011;9633;50.980;13.850;2023-02-22T02:03:31;12.43;;;8.70;;
18999;SDS011;9633;50.980;13.850;2023-02-22T02:05:08;12.33;;;8.40;;
18999;SDS011;9633;50.980;13.850;2023-02-22T02:06:41;14.00;;;8.10;;
18999;SDS011;9633;50.980;13.850;2023-02-22T02:08:23;12.83;;;8.20;;
18999;SDS011;9633;50.980;13.850;2023-02-22T02:10:03;12.67;;;8.40;;
18999;SDS011;9633;50.980;13.850;2023-02-22T02:11:43;12.90;;;8.43;;
18999;SDS011;9633;50.980;13.850;2023-02-22T02:13:17;15.10;;;8.47;;
18999;SDS011;9633;50.980;13.850;2023-02-22T02:14:49;13.43;;;8.70;;
18999;SDS011;9633;50.980;13.850;2023-02-22T02:16:24;12.53;;;8.17;;
18999;SDS011;9633;50.980;13.850;2023-02-22T02:18:05;13.63;;;8.70;;
18999;SDS011;9633;50.980;13.850;2023-02-22T02:19:40;12.23;;;8.10;;
18999;SDS011;9633;50.980;13.850;2023-02-22T02:21:32;14.23;;;8.60;;
18999;SDS011;9633;50.980;13.850;2023-02-22T02:23:21;14.87;;;8.90;;
18999;SDS011;9633;50.980;13.850;2023-02-22T02:25:27;12.03;;;8.43;;
18999;SDS011;9633;50.980;13.850;2023-02-22T02:27:26;13.63;;;8.97;;
18999;SDS011;9633;50.980;13.850;2023-02-22T02:29:27;14.30;;;8.60;;
18999;SDS011;9633;50.980;13.850;2023-02-22T02:31:37;10.90;;;7.67;;
18999;SDS011;9633;50.980;13.850;2023-02-22T02:33:47;13.57;;;8.60;;
18999;SDS011;9633;50.980;13.850;2023-02-22T02:35:28;13.87;;;8.73;;
18999;SDS011;9633;50.980;13.850;2023-02-22T02:37:11;12.67;;;8.47;;
18999;SDS011;9633;50.980;13.850;2023-02-22T02:38:52;13.33;;;8.87;;
18999;SDS011;9633;50.980;13.850;2023-02-22T02:40:30;13.97;;;8.60;;
18999;SDS011;9633;50.980;13.850;2023-02-22T02:42:09;13.17;;;8.67;;
18999;SDS011;9633;50.980;13.850;2023-02-22T02:43:50;11.23;;;8.13;;
18999;SDS011;9633;50.980;13.850;2023-02-22T02:45:28;11.20;;;8.27;;
18999;SDS011;9633;50.980;13.850;2023-02-22T02:47:08;11.10;;;8.03;;
18999;SDS011;9633;50.980;13.850;2023-02-22T02:48:45;13.50;;;8.27;;
18999;SDS011;9633;50.980;13.850;2023-02-22T02:50:27;12.63;;;8.77;;
18999;SDS011;9633;50.980;13.850;2023-02-22T02:52:03;12.33;;;7.93;;
18999;SDS011;9633;50.980;13.850;2023-02-22T02:53:38;13.27;;;8.17;;
18999;SDS011;9633;50.980;13.850;2023-02-22T02:55:15;13.33;;;7.87;;
18999;SDS011;9633;50.980;13.850;2023-02-22T02:56:49;10.80;;;7.87;;
18999;SDS011;9633;50.980;13.850;2023-02-22T02:58:22;13.73;;;8.63;;
18999;SDS011;9633;50.980;13.850;2023-02-22T02:59:57;11.30;;;8.03;;
18999;SDS011;9633;50.980;13.850;2023-02-22T03:01:42;11.43;;;7.70;;
18999;SDS011;9633;50.980;13.850;2023-02-22T03:03:33;12.07;;;7.87;;
18999;SDS011;9633;50.980;13.850;2023-02-22T03:05:37;11.70;;;7.73;;
18999;SDS011;9633;50.980;13.850;2023-02-22T03:07:31;12.37;;;7.80;;
18999;SDS011;9633;50.980;13.850;2023-02-22T03:09:17;10.90;;;7.97;;
18999;SDS011;9633;50.980;13.850;2023-02-22T03:11:06;10.03;;;7.67;;
18999;SDS011;9633;50.980;13.850;2023-02-22T03:12:51;11.63;;;8.10;;
18999;SDS011;9633;50.980;13.850;2023-02-22T03:14:37;12.67;;;8.47;;
18999;SDS011;9633;50.980;13.850;2023-02-22T03:16:14;10.70;;;7.97;;
18999;SDS011;9633;50.980;13.850;2023-02-22T03:17:53;11.30;;;7.83;;
18999;SDS011;9633;50.980;13.850;2023-02-22T03:19:34;11.23;;;7.63;;
18999;SDS011;9633;50.980;13.850;2023-02-22T03:21:10;12.17;;;8.50;;
18999;SDS011;9633;50.980;13.850;2023-02-22T03:22:53;14.27;;;8.47;;
18999;SDS011;9633;50.980;13.850;2023-02-22T03:24:30;12.37;;;8.13;;
18999;SDS011;9633;50.980;13.850;2023-02-22T03:26:06;12.53;;;8.03;;
18999;SDS011;9633;50.980;13.850;2023-02-22T03:27:46;11.43;;;7.93;;
18999;SDS011;9633;50.980;13.850;2023-02-22T03:29:21;12.10;;;7.43;;
18999;SDS011;9633;50.980;13.850;2023-02-22T03:30:59;10.23;;;7.77;;
18999;SDS011;9633;50.980;13.850;2023-02-22T03:32:36;11.97;;;7.50;;
18999;SDS011;9633;50.980;13.850;2023-02-22T03:34:12;15.90;;;9.13;;
18999;SDS011;9633;50.980;13.850;2023-02-22T03:35:50;11.60;;;8.17;;
18999;SDS011;9633;50.980;13.850;2023-02-22T03:37:28;11.40;;;7.73;;
18999;SDS011;9633;50.980;13.850;2023-02-22T03:39:05;13.10;;;8.10;;
18999;SDS011;9633;50.980;13.850;2023-02-22T03:40:43;12.90;;;8.23;;
18999;SDS011;9633;50.980;13.850;2023-02-22T03:42:19;11.70;;;8.20;;
18999;SDS011;9633;50.980;13.850;2023-02-22T03:43:57;12.83;;;8.63;;
18999;SDS011;9633;50.980;13.850;2023-02-22T03:45:33;12.20;;;8.33;;
18999;SDS011;9633;50.980;13.850;2023-02-22T03:47:08;12.13;;;8.23;;
18999;SDS011;9633;50.980;13.850;2023-02-22T03:48:45;10.30;;;7.73;;
18999;SDS011;9633;50.980;13.850;2023-02-22T03:50:24;12.07;;;7.97;;
18999;SDS011;9633;50.980;13.850;2023-02-22T03:52:02;14.67;;;8.30;;
18999;SDS011;9633;50.980;13.850;2023-02-22T03:53:37;10.97;;;7.73;;
18999;SDS011;9633;50.980;13.850;2023-02-22T03:55:12;12.63;;;8.20;;
18999;SDS011;9633;50.980;13.850;2023-02-22T03:56:48;12.13;;;8.33;;
18999;SDS011;9633;50.980;13.850;2023-02-22T03:58:26;11.17;;;8.40;;
18999;SDS011;9633;50.980;13.850;2023-02-22T04:00:03;13.67;;;8.27;;
18999;SDS011;9633;50.980;13.850;2023-02-22T04:01:43;11.87;;;7.57;;
18999;SDS011;9633;50.980;13.850;2023-02-22T04:03:16;10.50;;;7.40;;
18999;SDS011;9633;50.980;13.850;2023-02-22T04:04:49;11.00;;;8.03;;
18999;SDS011;9633;50.980;13.850;2023-02-22T04:06:22;14.10;;;8.87;;
18999;SDS011;9633;50.980;13.850;2023-02-22T04:07:57;10.27;;;7.73;;
18999;SDS011;9633;50.980;13.850;2023-02-22T04:09:31;13.23;;;8.37;;
18999;SDS011;9633;50.980;13.850;2023-02-22T04:11:04;10.80;;;7.77;;
18999;SDS011;9633;50.980;13.850;2023-02-22T04:12:36;12.23;;;8.60;;
18999;SDS011;9633;50.980;13.850;2023-02-22T04:14:11;10.70;;;8.30;;
18999;SDS011;9633;50.980;13.850;2023-02-22T04:15:44;13.27;;;7.93;;
18999;SDS011;9633;50.980;13.850;2023-02-22T04:17:17;11.73;;;7.83;;
18999;SDS011;9633;50.980;13.850;2023-02-22T04:18:51;12.37;;;8.13;;
18999;SDS011;9633;50.980;13.850;2023-02-22T04:20:23;11.47;;;7.33;;
18999;SDS011;9633;50.980;13.850;2023-02-22T04:21:59;13.30;;;8.37;;
18999;SDS011;9633;50.980;13.850;2023-02-22T04:23:38;12.80;;;8.47;;
18999;SDS011;9633;50.980;13.850;2023-02-22T04:25:12;10.93;;;7.10;;
18999;SDS011;9633;50.980;13.850;2023-02-22T04:26:46;11.80;;;8.30;;
18999;SDS011;9633;50.980;13.850;2023-02-22T04:28:20;12.30;;;7.93;;
18999;SDS011;9633;50.980;13.850;2023-02-22T04:29:59;16.17;;;9.03;;
18999;SDS011;9633;50.980;13.850;2023-02-22T04:31:32;13.47;;;8.73;;
18999;SDS011;9633;50.980;13.850;2023-02-22T04:33:06;14.50;;;9.17;;
18999;SDS011;9633;50.980;13.850;2023-02-22T04:34:38;14.63;;;8.73;;
18999;SDS011;9633;50.980;13.850;2023-02-22T04:36:12;12.63;;;8.90;;
18999;SDS011;9633;50.980;13.850;2023-02-22T04:37:47;13.10;;;8.57;;
18999;SDS011;9633;50.980;13.850;2023-02-22T04:39:22;13.20;;;8.97;;
18999;SDS011;9633;50.980;13.850;2023-02-22T04:40:55;14.63;;;8.27;;
18999;SDS011;9633;50.980;13.850;2023-02-22T04:42:27;15.53;;;10.07;;
18999;SDS011;9633;50.980;13.850;2023-02-22T04:44:01;14.87;;;9.80;;
18999;SDS011;9633;50.980;13.850;2023-02-22T04:45:35;12.67;;;8.90;;
18999;SDS011;9633;50.980;13.850;2023-02-22T04:47:09;15.47;;;9.03;;
18999;SDS011;9633;50.980;13.850;2023-02-22T04:48:43;15.30;;;9.00;;
18999;SDS011;9633;50.980;13.850;2023-02-22T04:50:17;16.13;;;9.27;;
18999;SDS011;9633;50.980;13.850;2023-02-22T04:51:50;15.37;;;9.30;;
18999;SDS011;9633;50.980;13.850;2023-02-22T04:53:26;17.27;;;9.80;;
18999;SDS011;9633;50.980;13.850;2023-02-22T04:55:01;13.10;;;9.00;;
18999;SDS011;9633;50.980;13.850;2023-02-22T04:56:36;15.93;;;9.90;;
18999;SDS011;9633;50.980;13.850;2023-02-22T04:58:09;15.60;;;10.00;;
18999;SDS011;9633;50.980;13.850;2023-02-22T04:59:42;17.73;;;10.37;;
18999;SDS011;9633;50.980;13.850;2023-02-22T05:01:16;19.00;;;10.03;;
18999;SDS011;9633;50.980;13.850;2023-02-22T05:02:50;20.87;;;10.47;;
18999;SDS011;9633;50.980;13.850;2023-02-22T05:04:23;16.20;;;9.77;;
18999;SDS011;9633;50.980;13.850;2023-02-22T05:05:56;15.87;;;9.67;;
18999;SDS011;9633;50.980;13.850;2023-02-22T05:07:28;16.73;;;10.00;;
18999;SDS011;9633;50.980;13.850;2023-02-22T05:09:05;18.63;;;10.63;;
18999;SDS011;9633;50.980;13.850;2023-02-22T05:10:40;18.70;;;10.83;;
18999;SDS011;9633;50.980;13.850;2023-02-22T05:12:13;16.73;;;9.50;;
18999;SDS011;9633;50.980;13.850;2023-02-22T05:13:46;16.60;;;8.97;;
18999;SDS011;9633;50.980;13.850;2023-02-22T05:15:20;18.33;;;10.27;;
18999;SDS011;9633;50.980;13.850;2023-02-22T05:16:55;16.07;;;10.47;;
18999;SDS011;9633;50.980;13.850;2023-02-22T05:18:29;18.33;;;10.77;;
18999;SDS011;9633;50.980;13.850;2023-02-22T05:20:02;17.07;;;9.90;;
18999;SDS011;9633;50.980;13.850;2023-02-22T05:21:38;20.90;;;11.13;;
18999;SDS011;9633;50.980;13.850;2023-02-22T05:23:11;18.63;;;10.83;;
18999;SDS011;9633;50.980;13.850;2023-02-22T05:24:45;19.50;;;11.53;;
18999;SDS011;9633;50.980;13.850;2023-02-22T05:26:20;18.37;;;9.97;;
18999;SDS011;9633;50.980;13.850;2023-02-22T05:27:52;16.60;;;10.50;;
18999;SDS011;9633;50.980;13.850;2023-02-22T05:29:27;16.60;;;10.23;;
18999;SDS011;9633;50.980;13.850;2023-02-22T05:31:01;15.03;;;9.83;;
18999;SDS011;9633;50.980;13.850;2023-02-22T05:32:33;15.80;;;10.00;;
18999;SDS011;9633;50.980;13.850;2023-02-22T05:34:07;16.47;;;10.10;;
18999;SDS011;9633;50.980;13.850;2023-02-22T05:35:40;15.40;;;10.50;;
18999;SDS011;9633;50.980;13.850;2023-02-22T05:37:13;18.90;;;10.87;;
18999;SDS011;9633;50.980;13.850;2023-02-22T05:38:46;18.73;;;10.13;;
18999;SDS011;9633;50.980;13.850;2023-02-22T05:40:20;16.77;;;9.77;;
18999;SDS011;9633;50.980;13.850;2023-02-22T05:41:56;14.57;;;9.87;;
18999;SDS011;9633;50.980;13.850;2023-02-22T05:43:29;13.80;;;9.63;;
18999;SDS011;9633;50.980;13.850;2023-02-22T05:45:01;15.73;;;9.60;;
18999;SDS011;9633;50.980;13.850;2023-02-22T05:46:35;15.20;;;9.63;;
18999;SDS011;9633;50.980;13.850;2023-02-22T05:48:08;17.00;;;10.17;;
18999;SDS011;9633;50.980;13.850;2023-02-22T05:49:43;13.80;;;9.27;;
18999;SDS011;9633;50.980;13.850;2023-02-22T05:51:16;16.67;;;10.20;;
18999;SDS011;9633;50.980;13.850;2023-02-22T05:52:50;14.73;;;10.30;;
18999;SDS011;9633;50.980;13.850;2023-02-22T05:54:23;14.33;;;9.47;;
18999;SDS011;9633;50.980;13.850;2023-02-22T05:55:56;14.50;;;9.57;;
18999;SDS011;9633;50.980;13.850;2023-02-22T05:57:31;17.83;;;10.20;;
18999;SDS011;9633;50.980;13.850;2023-02-22T05:59:04;17.73;;;10.47;;
18999;SDS011;9633;50.980;13.850;2023-02-22T06:00:37;14.43;;;9.37;;
18999;SDS011;9633;50.980;13.850;2023-02-22T06:02:10;15.73;;;10.37;;
18999;SDS011;9633;50.980;13.850;2023-02-22T06:03:45;17.13;;;10.07;;
18999;SDS011;9633;50.980;13.850;2023-02-22T06:05:19;14.53;;;9.70;;
18999;SDS011;9633;50.980;13.850;2023-02-22T06:06:52;17.13;;;9.77;;
18999;SDS011;9633;50.980;13.850;2023-02-22T06:08:25;16.80;;;10.63;;
18999;SDS011;9633;50.980;13.850;2023-02-22T06:09:58;17.17;;;10.53;;
18999;SDS011;9633;50.980;13.850;2023-02-22T06:11:32;18.20;;;9.97;;
18999;SDS011;9633;50.980;13.850;2023-02-22T06:13:06;17.23;;;10.53;;
18999;SDS011;9633;50.980;13.850;2023-02-22T06:14:39;18.00;;;10.60;;
18999;SDS011;9633;50.980;13.850;2023-02-22T06:16:16;13.97;;;10.07;;
18999;SDS011;9633;50.980;13.850;2023-02-22T06:17:49;15.23;;;9.77;;
18999;SDS011;9633;50.980;13.850;2023-02-22T06:19:23;15.63;;;10.03;;
18999;SDS011;9633;50.980;13.850;2023-02-22T06:20:57;16.83;;;9.70;;
18999;SDS011;9633;50.980;13.850;2023-02-22T06:22:31;15.17;;;9.90;;
18999;SDS011;9633;50.980;13.850;2023-02-22T06:24:04;14.80;;;10.47;;
18999;SDS011;9633;50.980;13.850;2023-02-22T06:25:38;16.33;;;10.20;;
18999;SDS011;9633;50.980;13.850;2023-02-22T06:27:11;15.53;;;11.03;;
18999;SDS011;9633;50.980;13.850;2023-02-22T06:28:46;16.43;;;10.43;;
18999;SDS011;9633;50.980;13.850;2023-02-22T06:30:20;20.20;;;10.03;;
18999;SDS011;9633;50.980;13.850;2023-02-22T06:31:55;15.73;;;9.43;;
18999;SDS011;9633;50.980;13.850;2023-02-22T06:33:28;13.43;;;9.10;;
18999;SDS011;9633;50.980;13.850;2023-02-22T06:35:01;15.80;;;9.97;;
18999;SDS011;9633;50.980;13.850;2023-02-22T06:36:34;14.83;;;9.03;;
18999;SDS011;9633;50.980;13.850;2023-02-22T06:38:07;13.87;;;9.07;;
18999;SDS011;9633;50.980;13.850;2023-02-22T06:39:40;14.53;;;10.00;;
18999;SDS011;9633;50.980;13.850;2023-02-22T06:41:13;16.00;;;9.97;;
18999;SDS011;9633;50.980;13.850;2023-02-22T06:42:47;15.10;;;9.83;;
18999;SDS011;9633;50.980;13.850;2023-02-22T06:44:22;15.13;;;9.70;;
18999;SDS011;9633;50.980;13.850;2023-02-22T06:45:54;14.53;;;9.80;;
18999;SDS011;9633;50.980;13.850;2023-02-22T06:47:27;13.40;;;8.73;;
18999;SDS011;9633;50.980;13.850;2023-02-22T06:49:01;16.57;;;10.03;;
18999;SDS011;9633;50.980;13.850;2023-02-22T06:50:34;14.40;;;9.37;;
18999;SDS011;9633;50.980;13.850;2023-02-22T06:52:07;17.90;;;10.20;;
18999;SDS011;9633;50.980;13.850;2023-02-22T06:53:41;16.03;;;9.50;;
18999;SDS011;9633;50.980;13.850;2023-02-22T06:55:15;15.80;;;9.70;;
18999;SDS011;9633;50.980;13.850;2023-02-22T06:56:50;18.90;;;10.47;;
18999;SDS011;9633;50.980;13.850;2023-02-22T06:58:23;14.47;;;9.23;;
18999;SDS011;9633;50.980;13.850;2023-02-22T06:59:58;14.17;;;9.67;;
18999;SDS011;9633;50.980;13.850;2023-02-22T07:01:33;15.60;;;9.93;;
18999;SDS011;9633;50.980;13.850;2023-02-22T07:03:06;15.77;;;9.97;;
18999;SDS011;9633;50.980;13.850;2023-02-22T07:04:39;16.30;;;10.10;;
18999;SDS011;9633;50.980;13.850;2023-02-22T07:06:14;14.73;;;9.57;;
18999;SDS011;9633;50.980;13.850;2023-02-22T07:07:47;16.23;;;9.83;;
18999;SDS011;9633;50.980;13.850;2023-02-22T07:09:22;16.50;;;10.37;;
18999;SDS011;9633;50.980;13.850;2023-02-22T07:10:56;14.37;;;9.53;;
18999;SDS011;9633;50.980;13.850;2023-02-22T07:12:29;15.33;;;10.53;;
18999;SDS011;9633;50.980;13.850;2023-02-22T07:14:03;15.50;;;9.97;;
18999;SDS011;9633;50.980;13.850;2023-02-22T07:15:37;14.20;;;10.03;;
18999;SDS011;9633;50.980;13.850;2023-02-22T07:17:10;14.43;;;10.30;;
18999;SDS011;9633;50.980;13.850;2023-02-22T07:18:44;13.87;;;9.97;;
18999;SDS011;9633;50.980;13.850;2023-02-22T07:20:18;16.20;;;10.50;;
18999;SDS011;9633;50.980;13.850;2023-02-22T07:21:52;16.67;;;10.40;;
18999;SDS011;9633;50.980;13.850;2023-02-22T07:23:29;13.10;;;9.13;;
18999;SDS011;9633;50.980;13.850;2023-02-22T07:25:03;15.03;;;9.87;;
18999;SDS011;9633;50.980;13.850;2023-02-22T07:26:38;16.33;;;9.97;;
18999;SDS011;9633;50.980;13.850;2023-02-22T07:28:12;13.67;;;9.50;;
18999;SDS011;9633;50.980;13.850;2023-02-22T07:29:45;17.07;;;9.33;;
18999;SDS011;9633;50.980;13.850;2023-02-22T07:31:19;16.20;;;9.70;;
18999;SDS011;9633;50.980;13.850;2023-02-22T07:32:52;15.33;;;9.53;;
18999;SDS011;9633;50.980;13.850;2023-02-22T07:34:26;14.13;;;9.67;;
18999;SDS011;9633;50.980;13.850;2023-02-22T07:36:01;14.37;;;9.23;;
18999;SDS011;9633;50.980;13.850;2023-02-22T07:37:34;13.77;;;9.90;;
18999;SDS011;9633;50.980;13.850;2023-02-22T07:39:07;14.30;;;9.77;;
18999;SDS011;9633;50.980;13.850;2023-02-22T07:40:41;14.30;;;10.10;;
18999;SDS011;9633;50.980;13.850;2023-02-22T07:42:15;15.63;;;10.50;;
18999;SDS011;9633;50.980;13.850;2023-02-22T07:43:49;15.33;;;10.10;;
18999;SDS011;9633;50.980;13.850;2023-02-22T07:45:23;15.43;;;10.27;;
18999;SDS011;9633;50.980;13.850;2023-02-22T07:46:58;16.40;;;10.67;;
18999;SDS011;9633;50.980;13.850;2023-02-22T07:48:33;17.53;;;11.03;;
18999;SDS011;9633;50.980;13.850;2023-02-22T07:50:06;14.17;;;10.60;;
18999;SDS011;9633;50.980;13.850;2023-02-22T07:51:39;15.70;;;10.70;;
18999;SDS011;9633;50.980;13.850;2023-02-22T07:53:14;13.23;;;9.90;;
18999;SDS011;9633;50.980;13.850;2023-02-22T07:54:49;14.97;;;10.07;;
18999;SDS011;9633;50.980;13.850;2023-02-22T07:56:22;15.80;;;10.50;;
18999;SDS011;9633;50.980;13.850;2023-02-22T07:57:56;13.73;;;10.33;;
18999;SDS011;9633;50.980;13.850;2023-02-22T07:59:30;16.83;;;10.57;;
18999;SDS011;9633;50.980;13.850;2023-02-22T08:01:04;13.30;;;9.50;;
18999;SDS011;9633;50.980;13.850;2023-02-22T08:02:38;12.00;;;9.23;;
18999;SDS011;9633;50.980;13.850;2023-02-22T08:04:11;14.17;;;10.53;;
18999;SDS011;9633;50.980;13.850;2023-02-22T08:05:45;16.77;;;10.50;;
18999;SDS011;9633;50.980;13.850;2023-02-22T08:07:20;14.10;;;10.30;;
18999;SDS011;9633;50.980;13.850;2023-02-22T08:08:53;14.97;;;9.67;;
18999;SDS011;9633;50.980;13.850;2023-02-22T08:10:26;12.00;;;9.70;;
18999;SDS011;9633;50.980;13.850;2023-02-22T08:12:01;15.13;;;10.20;;
18999;SDS011;9633;50.980;13.850;2023-02-22T08:13:34;15.13;;;10.47;;
18999;SDS011;9633;50.980;13.850;2023-02-22T08:15:12;14.30;;;10.00;;
18999;SDS011;9633;50.980;13.850;2023-02-22T08:16:47;15.73;;;11.07;;
18999;SDS011;9633;50.980;13.850;2023-02-22T08:18:22;14.97;;;9.87;;
18999;SDS011;9633;50.980;13.850;2023-02-22T08:19:57;15.77;;;10.10;;
18999;SDS011;9633;50.980;13.850;2023-02-22T08:21:30;14.90;;;10.77;;
18999;SDS011;9633;50.980;13.850;2023-02-22T08:23:03;17.40;;;11.07;;
18999;SDS011;9633;50.980;13.850;2023-02-22T08:24:37;16.07;;;10.83;;
18999;SDS011;9633;50.980;13.850;2023-02-22T08:26:11;23.30;;;11.20;;
18999;SDS011;9633;50.980;13.850;2023-02-22T08:27:48;23.07;;;12.00;;
18999;SDS011;9633;50.980;13.850;2023-02-22T08:29:22;14.27;;;10.50;;
18999;SDS011;9633;50.980;13.850;2023-02-22T08:30:58;16.10;;;10.43;;
18999;SDS011;9633;50.980;13.850;2023-02-22T08:32:31;17.13;;;12.13;;
18999;SDS011;9633;50.980;13.850;2023-02-22T08:34:07;16.10;;;11.10;;
18999;SDS011;9633;50.980;13.850;2023-02-22T08:35:40;17.67;;;11.40;;
18999;SDS011;9633;50.980;13.850;2023-02-22T08:37:14;16.77;;;10.90;;
18999;SDS011;9633;50.980;13.850;2023-02-22T08:38:48;15.50;;;10.80;;
18999;SDS011;9633;50.980;13.850;2023-02-22T08:40:22;15.43;;;9.83;;
18999;SDS011;9633;50.980;13.850;2023-02-22T08:41:58;15.57;;;10.80;;
18999;SDS011;9633;50.980;13.850;2023-02-22T08:43:31;16.60;;;11.90;;
18999;SDS011;9633;50.980;13.850;2023-02-22T08:45:04;17.30;;;10.60;;
18999;SDS011;9633;50.980;13.850;2023-02-22T08:46:39;17.77;;;11.50;;
18999;SDS011;9633;50.980;13.850;2023-02-22T08:48:12;21.07;;;14.83;;
18999;SDS011;9633;50.980;13.850;2023-02-22T08:49:47;16.90;;;11.90;;
18999;SDS011;9633;50.980;13.850;2023-02-22T08:51:20;18.17;;;12.87;;
18999;SDS011;9633;50.980;13.850;2023-02-22T08:52:53;16.50;;;10.90;;
18999;SDS011;9633;50.980;13.850;2023-02-22T08:54:29;16.80;;;10.63;;
18999;SDS011;9633;50.980;13.850;2023-02-22T08:56:03;13.47;;;9.77;;
18999;SDS011;9633;50.980;13.850;2023-02-22T08:57:36;15.30;;;10.93;;
18999;SDS011;9633;50.980;13.850;2023-02-22T08:59:09;15.77;;;10.50;;
18999;SDS011;9633;50.980;13.850;2023-02-22T09:00:43;15.30;;;9.87;;
18999;SDS011;9633;50.980;13.850;2023-02-22T09:02:17;15.70;;;10.90;;
18999;SDS011;9633;50.980;13.850;2023-02-22T09:03:52;15.27;;;10.33;;
18999;SDS011;9633;50.980;13.850;2023-02-22T09:05:27;14.00;;;10.23;;
18999;SDS011;9633;50.980;13.850;2023-02-22T09:07:02;16.00;;;10.87;;
18999;SDS011;9633;50.980;13.850;2023-02-22T09:08:35;14.53;;;10.47;;
18999;SDS011;9633;50.980;13.850;2023-02-22T09:10:10;16.40;;;10.83;;
18999;SDS011;9633;50.980;13.850;2023-02-22T09:11:46;14.93;;;9.97;;
18999;SDS011;9633;50.980;13.850;2023-02-22T09:13:23;15.37;;;10.40;;
18999;SDS011;9633;50.980;13.850;2023-02-22T09:14:56;16.87;;;10.77;;
18999;SDS011;9633;50.980;13.850;2023-02-22T09:16:29;15.33;;;10.17;;
18999;SDS011;9633;50.980;13.850;2023-02-22T09:18:02;17.53;;;10.97;;
18999;SDS011;9633;50.980;13.850;2023-02-22T09:19:38;16.97;;;11.37;;
18999;SDS011;9633;50.980;13.850;2023-02-22T09:21:14;15.80;;;10.80;;
18999;SDS011;9633;50.980;13.850;2023-02-22T09:22:48;15.57;;;10.73;;
18999;SDS011;9633;50.980;13.850;2023-02-22T09:24:22;15.50;;;10.87;;
18999;SDS011;9633;50.980;13.850;2023-02-22T09:25:55;15.97;;;10.33;;